sensor_id;sensor_type;location;lat;lon;timestamp;temperature;humidity
24412;DHT22;12544;46.760;15.942;2023-02-28T00:02:14;1.60;99.30
24412;DHT22;12544;46.760;15.942;2023-02-28T00:04:42;1.60;99.30
24412;DHT22;12544;46.760;15.942;2023-02-28T00:07:08;1.50;99.00
24412;DHT22;12544;46.760;15.942;2023-02-28T00:09:34;1.50;98.90
24412;DHT22;12544;46.760;15.942;2023-02-28T00:11:59;1.50;98.90
24412;DHT22;12544;46.760;15.942;2023-02-28T00:14:25;1.60;98.90
24412;DHT22;12544;46.760;15.942;2023-02-28T00:16:50;1.60;98.90
24412;DHT22;12544;46.760;15.942;2023-02-28T00:19:16;1.60;99.20
24412;DHT22;12544;46.760;15.942;2023-02-28T00:21:41;1.60;98.90
24412;DHT22;12544;46.760;15.942;2023-02-28T00:24:08;1.60;99.30
24412;DHT22;12544;46.760;15.942;2023-02-28T00:26:33;1.70;99.90
24412;DHT22;12544;46.760;15.942;2023-02-28T00:28:59;1.70;99.90
24412;DHT22;12544;46.760;15.942;2023-02-28T00:31:25;1.70;99.90
24412;DHT22;12544;46.760;15.942;2023-02-28T00:33:50;1.60;99.90
24412;DHT22;12544;46.760;15.942;2023-02-28T00:36:17;1.70;99.90
24412;DHT22;12544;46.760;15.942;2023-02-28T00:38:42;1.60;99.90
24412;DHT22;12544;46.760;15.942;2023-02-28T00:41:08;1.50;99.70
24412;DHT22;12544;46.760;15.942;2023-02-28T00:43:34;1.60;99.80
24412;DHT22;12544;46.760;15.942;2023-02-28T00:46:01;1.60;99.90
24412;DHT22;12544;46.760;15.942;2023-02-28T00:48:27;1.60;99.90
24412;DHT22;12544;46.760;15.942;2023-02-28T00:50:53;1.60;99.90
24412;DHT22;12544;46.760;15.942;2023-02-28T00:53:18;1.60;99.90
24412;DHT22;12544;46.760;15.942;2023-02-28T00:55:44;1.50;99.90
24412;DHT22;12544;46.760;15.942;2023-02-28T00:58:09;1.50;99.90
24412;DHT22;12544;46.760;15.942;2023-02-28T01:00:35;1.60;99.90
24412;DHT22;12544;46.760;15.942;2023-02-28T01:03:00;1.50;99.90
24412;DHT22;12544;46.760;15.942;2023-02-28T01:05:26;1.50;99.90
24412;DHT22;12544;46.760;15.942;2023-02-28T01:07:52;1.50;99.90
24412;DHT22;12544;46.760;15.942;2023-02-28T01:10:17;1.50;99.90
24412;DHT22;12544;46.760;15.942;2023-02-28T01:15:14;1.60;99.90
24412;DHT22;12544;46.760;15.942;2023-02-28T01:17:40;1.60;99.90
24412;DHT22;12544;46.760;15.942;2023-02-28T01:20:06;1.60;99.90
24412;DHT22;12544;46.760;15.942;2023-02-28T01:22:31;1.50;99.90
24412;DHT22;12544;46.760;15.942;2023-02-28T01:24:57;1.60;99.90
24412;DHT22;12544;46.760;15.942;2023-02-28T01:27:22;1.60;99.90
24412;DHT22;12544;46.760;15.942;2023-02-28T01:29:48;1.60;99.90
24412;DHT22;12544;46.760;15.942;2023-02-28T01:32:13;1.70;99.90
24412;DHT22;12544;46.760;15.942;2023-02-28T01:34:39;1.70;99.90
24412;DHT22;12544;46.760;15.942;2023-02-28T01:37:04;1.70;99.90
24412;DHT22;12544;46.760;15.942;2023-02-28T01:39:30;1.80;99.90
24412;DHT22;12544;46.760;15.942;2023-02-28T01:41:55;1.80;99.90
24412;DHT22;12544;46.760;15.942;2023-02-28T01:47:06;1.80;99.90
24412;DHT22;12544;46.760;15.942;2023-02-28T01:49:32;1.80;99.90
24412;DHT22;12544;46.760;15.942;2023-02-28T01:51:57;1.90;99.90
24412;DHT22;12544;46.760;15.942;2023-02-28T01:54:24;1.90;99.90
24412;DHT22;12544;46.760;15.942;2023-02-28T01:57:25;1.90;99.90
24412;DHT22;12544;46.760;15.942;2023-02-28T02:02:12;2.00;99.90
24412;DHT22;12544;46.760;15.942;2023-02-28T02:05:24;2.00;99.90
24412;DHT22;12544;46.760;15.942;2023-02-28T02:07:23;2.00;99.90
24412;DHT22;12544;46.760;15.942;2023-02-28T02:09:50;2.00;99.90
24412;DHT22;12544;46.760;15.942;2023-02-28T02:12:25;2.00;99.90
24412;DHT22;12544;46.760;15.942;2023-02-28T02:17:27;2.00;99.90
24412;DHT22;12544;46.760;15.942;2023-02-28T02:40:25;2.10;99.90
24412;DHT22;12544;46.760;15.942;2023-02-28T02:43:04;2.10;99.90
24412;DHT22;12544;46.760;15.942;2023-02-28T02:48:25;2.10;99.90
24412;DHT22;12544;46.760;15.942;2023-02-28T02:50:54;2.10;99.90
24412;DHT22;12544;46.760;15.942;2023-02-28T02:53:21;2.10;99.90
24412;DHT22;12544;46.760;15.942;2023-02-28T02:55:50;2.00;99.90
24412;DHT22;12544;46.760;15.942;2023-02-28T02:58:20;2.00;99.90
24412;DHT22;12544;46.760;15.942;2023-02-28T03:00:48;1.90;99.90
24412;DHT22;12544;46.760;15.942;2023-02-28T03:03:15;2.00;99.90
24412;DHT22;12544;46.760;15.942;2023-02-28T03:05:45;2.00;99.90
24412;DHT22;12544;46.760;15.942;2023-02-28T03:08:11;1.90;99.90
24412;DHT22;12544;46.760;15.942;2023-02-28T03:10:39;2.00;99.90
24412;DHT22;12544;46.760;15.942;2023-02-28T03:13:18;2.00;99.90
24412;DHT22;12544;46.760;15.942;2023-02-28T03:18:17;1.90;99.90
24412;DHT22;12544;46.760;15.942;2023-02-28T03:20:50;1.90;99.90
24412;DHT22;12544;46.760;15.942;2023-02-28T03:23:21;1.90;99.90
24412;DHT22;12544;46.760;15.942;2023-02-28T03:31:34;2.00;99.90
24412;DHT22;12544;46.760;15.942;2023-02-28T03:34:08;2.10;99.90
24412;DHT22;12544;46.760;15.942;2023-02-28T03:36:37;2.10;99.90
24412;DHT22;12544;46.760;15.942;2023-02-28T03:39:14;2.10;99.90
24412;DHT22;12544;46.760;15.942;2023-02-28T03:44:08;2.20;99.90
24412;DHT22;12544;46.760;15.942;2023-02-28T03:46:38;2.20;99.90
24412;DHT22;12544;46.760;15.942;2023-02-28T03:49:30;2.20;99.90
24412;DHT22;12544;46.760;15.942;2023-02-28T03:51:53;2.20;99.90
24412;DHT22;12544;46.760;15.942;2023-02-28T03:54:21;2.30;99.90
24412;DHT22;12544;46.760;15.942;2023-02-28T03:56:55;2.30;99.90
24412;DHT22;12544;46.760;15.942;2023-02-28T04:01:48;2.30;99.90
24412;DHT22;12544;46.760;15.942;2023-02-28T04:04:14;2.20;99.90
24412;DHT22;12544;46.760;15.942;2023-02-28T04:06:40;2.20;99.90
24412;DHT22;12544;46.760;15.942;2023-02-28T04:09:08;2.20;99.90
24412;DHT22;12544;46.760;15.942;2023-02-28T04:14:00;2.10;99.90
24412;DHT22;12544;46.760;15.942;2023-02-28T04:16:26;2.20;99.90
24412;DHT22;12544;46.760;15.942;2023-02-28T04:18:51;2.20;99.90
24412;DHT22;12544;46.760;15.942;2023-02-28T04:21:17;2.20;99.90
24412;DHT22;12544;46.760;15.942;2023-02-28T04:23:46;2.20;99.90
24412;DHT22;12544;46.760;15.942;2023-02-28T04:26:11;2.20;99.90
24412;DHT22;12544;46.760;15.942;2023-02-28T04:28:37;2.20;99.90
24412;DHT22;12544;46.760;15.942;2023-02-28T04:31:03;2.20;99.90
24412;DHT22;12544;46.760;15.942;2023-02-28T04:33:30;2.20;99.90
24412;DHT22;12544;46.760;15.942;2023-02-28T04:36:03;2.20;99.90
24412;DHT22;12544;46.760;15.942;2023-02-28T04:38:30;2.20;99.90
24412;DHT22;12544;46.760;15.942;2023-02-28T04:40:58;2.20;99.90
24412;DHT22;12544;46.760;15.942;2023-02-28T04:43:23;2.20;99.90
24412;DHT22;12544;46.760;15.942;2023-02-28T04:45:49;2.20;99.90
24412;DHT22;12544;46.760;15.942;2023-02-28T04:48:14;2.20;99.90
24412;DHT22;12544;46.760;15.942;2023-02-28T04:50:40;2.10;99.90
24412;DHT22;12544;46.760;15.942;2023-02-28T04:53:05;2.00;99.90
24412;DHT22;12544;46.760;15.942;2023-02-28T04:55:33;1.90;99.90
24412;DHT22;12544;46.760;15.942;2023-02-28T04:57:58;1.90;99.90
24412;DHT22;12544;46.760;15.942;2023-02-28T05:00:24;1.80;99.90
24412;DHT22;12544;46.760;15.942;2023-02-28T05:02:50;1.80;99.90
24412;DHT22;12544;46.760;15.942;2023-02-28T05:05:15;1.80;99.90
24412;DHT22;12544;46.760;15.942;2023-02-28T05:07:43;1.80;99.90
24412;DHT22;12544;46.760;15.942;2023-02-28T05:10:09;1.80;99.90
24412;DHT22;12544;46.760;15.942;2023-02-28T05:12:35;1.80;99.90
24412;DHT22;12544;46.760;15.942;2023-02-28T05:15:00;1.80;99.90
24412;DHT22;12544;46.760;15.942;2023-02-28T05:17:27;1.80;99.90
24412;DHT22;12544;46.760;15.942;2023-02-28T05:19:53;1.80;99.90
24412;DHT22;12544;46.760;15.942;2023-02-28T05:22:18;1.80;99.90
24412;DHT22;12544;46.760;15.942;2023-02-28T05:24:44;1.70;99.90
24412;DHT22;12544;46.760;15.942;2023-02-28T05:27:09;1.70;99.90
24412;DHT22;12544;46.760;15.942;2023-02-28T05:29:35;1.70;99.90
24412;DHT22;12544;46.760;15.942;2023-02-28T05:35:02;1.70;99.90
24412;DHT22;12544;46.760;15.942;2023-02-28T05:37:28;1.70;99.90
24412;DHT22;12544;46.760;15.942;2023-02-28T05:39:53;1.70;99.90
24412;DHT22;12544;46.760;15.942;2023-02-28T05:42:19;1.70;99.90
24412;DHT22;12544;46.760;15.942;2023-02-28T05:44:44;1.60;99.90
24412;DHT22;12544;46.760;15.942;2023-02-28T05:47:10;1.70;99.90
24412;DHT22;12544;46.760;15.942;2023-02-28T05:49:35;1.60;99.90
24412;DHT22;12544;46.760;15.942;2023-02-28T05:52:01;1.70;99.90
24412;DHT22;12544;46.760;15.942;2023-02-28T05:54:26;1.70;99.90
24412;DHT22;12544;46.760;15.942;2023-02-28T05:56:52;1.70;99.90
24412;DHT22;12544;46.760;15.942;2023-02-28T05:59:17;1.80;99.90
24412;DHT22;12544;46.760;15.942;2023-02-28T06:01:43;1.80;99.90
24412;DHT22;12544;46.760;15.942;2023-02-28T06:04:16;1.90;99.90
24412;DHT22;12544;46.760;15.942;2023-02-28T06:06:44;2.00;99.90
24412;DHT22;12544;46.760;15.942;2023-02-28T06:09:10;2.10;99.90
24412;DHT22;12544;46.760;15.942;2023-02-28T06:11:35;2.00;99.90
24412;DHT22;12544;46.760;15.942;2023-02-28T06:14:01;2.00;99.90
24412;DHT22;12544;46.760;15.942;2023-02-28T06:16:27;2.00;99.90
24412;DHT22;12544;46.760;15.942;2023-02-28T06:18:53;2.00;99.90
24412;DHT22;12544;46.760;15.942;2023-02-28T06:21:21;2.00;99.90
24412;DHT22;12544;46.760;15.942;2023-02-28T06:23:46;2.00;99.90
24412;DHT22;12544;46.760;15.942;2023-02-28T06:26:12;2.00;99.90
24412;DHT22;12544;46.760;15.942;2023-02-28T06:28:38;2.00;99.90
24412;DHT22;12544;46.760;15.942;2023-02-28T06:31:10;2.00;99.90
24412;DHT22;12544;46.760;15.942;2023-02-28T06:33:36;2.00;99.90
24412;DHT22;12544;46.760;15.942;2023-02-28T06:36:02;2.00;99.90
24412;DHT22;12544;46.760;15.942;2023-02-28T06:38:28;2.00;99.90
24412;DHT22;12544;46.760;15.942;2023-02-28T06:40:54;2.00;99.90
24412;DHT22;12544;46.760;15.942;2023-02-28T06:43:19;2.00;99.90
24412;DHT22;12544;46.760;15.942;2023-02-28T06:45:45;2.10;99.90
24412;DHT22;12544;46.760;15.942;2023-02-28T06:48:11;2.10;99.90
24412;DHT22;12544;46.760;15.942;2023-02-28T06:50:36;2.10;99.90
24412;DHT22;12544;46.760;15.942;2023-02-28T06:53:02;2.10;99.90
24412;DHT22;12544;46.760;15.942;2023-02-28T06:55:28;2.20;99.90
24412;DHT22;12544;46.760;15.942;2023-02-28T06:57:53;2.20;99.90
24412;DHT22;12544;46.760;15.942;2023-02-28T07:00:20;2.20;99.90
24412;DHT22;12544;46.760;15.942;2023-02-28T07:02:46;2.10;99.90
24412;DHT22;12544;46.760;15.942;2023-02-28T07:05:12;2.00;99.90
24412;DHT22;12544;46.760;15.942;2023-02-28T07:07:38;2.10;99.90
24412;DHT22;12544;46.760;15.942;2023-02-28T07:10:06;2.00;99.90
24412;DHT22;12544;46.760;15.942;2023-02-28T07:12:31;2.10;99.90
24412;DHT22;12544;46.760;15.942;2023-02-28T07:14:57;2.00;99.90
24412;DHT22;12544;46.760;15.942;2023-02-28T07:17:22;2.00;99.90
24412;DHT22;12544;46.760;15.942;2023-02-28T07:19:48;1.90;99.90
24412;DHT22;12544;46.760;15.942;2023-02-28T07:22:14;1.90;99.90
24412;DHT22;12544;46.760;15.942;2023-02-28T07:24:39;1.90;99.90
24412;DHT22;12544;46.760;15.942;2023-02-28T07:27:04;1.90;99.90
24412;DHT22;12544;46.760;15.942;2023-02-28T07:29:30;1.90;99.90
24412;DHT22;12544;46.760;15.942;2023-02-28T07:31:56;1.90;99.90
24412;DHT22;12544;46.760;15.942;2023-02-28T07:34:21;2.00;99.90
24412;DHT22;12544;46.760;15.942;2023-02-28T07:36:47;2.00;99.90
24412;DHT22;12544;46.760;15.942;2023-02-28T07:39:12;2.00;99.90
24412;DHT22;12544;46.760;15.942;2023-02-28T07:41:38;2.00;99.90
24412;DHT22;12544;46.760;15.942;2023-02-28T07:44:11;2.20;99.90
24412;DHT22;12544;46.760;15.942;2023-02-28T07:46:37;2.20;99.90
24412;DHT22;12544;46.760;15.942;2023-02-28T07:49:02;2.20;99.90
24412;DHT22;12544;46.760;15.942;2023-02-28T07:51:29;2.10;99.90
24412;DHT22;12544;46.760;15.942;2023-02-28T07:53:54;2.10;99.90
24412;DHT22;12544;46.760;15.942;2023-02-28T07:56:20;2.10;99.90
24412;DHT22;12544;46.760;15.942;2023-02-28T07:58:45;2.10;99.90
24412;DHT22;12544;46.760;15.942;2023-02-28T08:04:14;2.20;99.90
24412;DHT22;12544;46.760;15.942;2023-02-28T08:06:40;2.20;99.90
24412;DHT22;12544;46.760;15.942;2023-02-28T08:09:05;2.10;99.90
24412;DHT22;12544;46.760;15.942;2023-02-28T08:11:31;2.10;99.90
24412;DHT22;12544;46.760;15.942;2023-02-28T08:13:56;2.20;99.90
24412;DHT22;12544;46.760;15.942;2023-02-28T08:16:22;2.10;99.90
24412;DHT22;12544;46.760;15.942;2023-02-28T08:18:48;2.20;99.90
24412;DHT22;12544;46.760;15.942;2023-02-28T08:21:14;2.20;99.90
24412;DHT22;12544;46.760;15.942;2023-02-28T08:38:56;2.40;99.90
24412;DHT22;12544;46.760;15.942;2023-02-28T08:41:38;2.40;99.90
24412;DHT22;12544;46.760;15.942;2023-02-28T08:44:04;2.40;99.90
24412;DHT22;12544;46.760;15.942;2023-02-28T08:46:29;2.50;99.90
24412;DHT22;12544;46.760;15.942;2023-02-28T08:48:55;2.50;99.90
24412;DHT22;12544;46.760;15.942;2023-02-28T08:54:27;2.70;99.90
24412;DHT22;12544;46.760;15.942;2023-02-28T08:56:55;2.70;99.90
24412;DHT22;12544;46.760;15.942;2023-02-28T08:59:21;2.80;99.90
24412;DHT22;12544;46.760;15.942;2023-02-28T09:01:46;2.80;99.90
24412;DHT22;12544;46.760;15.942;2023-02-28T09:04:12;2.70;99.90
24412;DHT22;12544;46.760;15.942;2023-02-28T09:06:37;2.70;99.90
24412;DHT22;12544;46.760;15.942;2023-02-28T09:09:03;2.70;99.90
24412;DHT22;12544;46.760;15.942;2023-02-28T09:11:31;2.70;99.90
24412;DHT22;12544;46.760;15.942;2023-02-28T09:13:57;2.80;99.90
24412;DHT22;12544;46.760;15.942;2023-02-28T09:16:24;2.90;99.90
24412;DHT22;12544;46.760;15.942;2023-02-28T09:18:49;3.00;99.90
24412;DHT22;12544;46.760;15.942;2023-02-28T09:21:16;3.10;99.90
24412;DHT22;12544;46.760;15.942;2023-02-28T09:23:42;3.00;99.90
24412;DHT22;12544;46.760;15.942;2023-02-28T09:26:11;3.00;99.90
24412;DHT22;12544;46.760;15.942;2023-02-28T09:28:38;3.20;99.90
24412;DHT22;12544;46.760;15.942;2023-02-28T09:31:19;3.20;99.90
24412;DHT22;12544;46.760;15.942;2023-02-28T09:33:46;3.30;99.90
24412;DHT22;12544;46.760;15.942;2023-02-28T09:36:12;3.20;99.90
24412;DHT22;12544;46.760;15.942;2023-02-28T09:38:37;3.10;99.90
24412;DHT22;12544;46.760;15.942;2023-02-28T09:41:08;3.10;99.90
24412;DHT22;12544;46.760;15.942;2023-02-28T09:43:35;3.20;99.90
24412;DHT22;12544;46.760;15.942;2023-02-28T09:46:14;3.10;99.90
24412;DHT22;12544;46.760;15.942;2023-02-28T09:48:44;3.10;99.90
24412;DHT22;12544;46.760;15.942;2023-02-28T09:53:36;3.10;99.90
24412;DHT22;12544;46.760;15.942;2023-02-28T09:56:11;3.00;99.90
24412;DHT22;12544;46.760;15.942;2023-02-28T09:58:58;3.00;99.90
24412;DHT22;12544;46.760;15.942;2023-02-28T10:06:52;3.20;99.90
24412;DHT22;12544;46.760;15.942;2023-02-28T10:09:22;3.20;99.90
24412;DHT22;12544;46.760;15.942;2023-02-28T10:11:50;3.20;99.90
24412;DHT22;12544;46.760;15.942;2023-02-28T10:14:26;3.20;99.90
24412;DHT22;12544;46.760;15.942;2023-02-28T10:16:58;3.20;99.90
24412;DHT22;12544;46.760;15.942;2023-02-28T10:24:42;3.40;99.90
24412;DHT22;12544;46.760;15.942;2023-02-28T10:27:16;3.40;99.90
24412;DHT22;12544;46.760;15.942;2023-02-28T10:29:43;3.50;99.90
24412;DHT22;12544;46.760;15.942;2023-02-28T10:32:09;3.50;99.90
24412;DHT22;12544;46.760;15.942;2023-02-28T10:34:35;3.70;99.90
24412;DHT22;12544;46.760;15.942;2023-02-28T10:37:01;3.90;99.90
24412;DHT22;12544;46.760;15.942;2023-02-28T10:42:04;4.30;99.90
24412;DHT22;12544;46.760;15.942;2023-02-28T10:44:30;4.30;99.90
24412;DHT22;12544;46.760;15.942;2023-02-28T10:46:56;4.40;99.90
24412;DHT22;12544;46.760;15.942;2023-02-28T10:49:23;4.50;99.90
24412;DHT22;12544;46.760;15.942;2023-02-28T10:54:36;4.50;99.90
24412;DHT22;12544;46.760;15.942;2023-02-28T10:59:32;4.40;99.90
24412;DHT22;12544;46.760;15.942;2023-02-28T11:01:57;4.30;99.90
24412;DHT22;12544;46.760;15.942;2023-02-28T11:07:01;4.50;99.90
24412;DHT22;12544;46.760;15.942;2023-02-28T11:11:54;4.40;99.90
24412;DHT22;12544;46.760;15.942;2023-02-28T11:16:45;4.50;99.90
24412;DHT22;12544;46.760;15.942;2023-02-28T11:19:16;4.60;99.90
24412;DHT22;12544;46.760;15.942;2023-02-28T11:21:48;4.70;99.90
24412;DHT22;12544;46.760;15.942;2023-02-28T11:26:48;4.80;99.90
24412;DHT22;12544;46.760;15.942;2023-02-28T11:29:18;4.90;99.90
24412;DHT22;12544;46.760;15.942;2023-02-28T11:37:39;4.90;99.90
24412;DHT22;12544;46.760;15.942;2023-02-28T11:40:14;4.60;99.90
24412;DHT22;12544;46.760;15.942;2023-02-28T11:45:14;4.60;99.90
24412;DHT22;12544;46.760;15.942;2023-02-28T11:56:10;5.10;99.90
24412;DHT22;12544;46.760;15.942;2023-02-28T11:58:47;5.30;99.90
24412;DHT22;12544;46.760;15.942;2023-02-28T12:06:26;4.90;99.90
24412;DHT22;12544;46.760;15.942;2023-02-28T12:08:57;4.80;99.90
24412;DHT22;12544;46.760;15.942;2023-02-28T12:14:25;4.90;99.90
24412;DHT22;12544;46.760;15.942;2023-02-28T12:16:55;4.80;99.90
24412;DHT22;12544;46.760;15.942;2023-02-28T12:19:34;4.90;99.90
24412;DHT22;12544;46.760;15.942;2023-02-28T12:22:13;5.00;99.90
24412;DHT22;12544;46.760;15.942;2023-02-28T12:30:17;5.00;99.90
24412;DHT22;12544;46.760;15.942;2023-02-28T12:32:45;4.90;99.90
24412;DHT22;12544;46.760;15.942;2023-02-28T12:35:13;5.00;99.90
24412;DHT22;12544;46.760;15.942;2023-02-28T12:37:46;4.90;99.90
24412;DHT22;12544;46.760;15.942;2023-02-28T12:40:14;4.90;99.90
24412;DHT22;12544;46.760;15.942;2023-02-28T12:42:42;4.90;99.90
24412;DHT22;12544;46.760;15.942;2023-02-28T12:47:42;5.00;99.90
24412;DHT22;12544;46.760;15.942;2023-02-28T12:50:09;5.10;99.90
24412;DHT22;12544;46.760;15.942;2023-02-28T12:55:12;5.10;99.90
24412;DHT22;12544;46.760;15.942;2023-02-28T12:57:41;5.20;99.90
24412;DHT22;12544;46.760;15.942;2023-02-28T13:00:13;5.20;99.90
24412;DHT22;12544;46.760;15.942;2023-02-28T13:10:45;5.20;99.90
24412;DHT22;12544;46.760;15.942;2023-02-28T13:13:15;5.20;99.90
24412;DHT22;12544;46.760;15.942;2023-02-28T13:15:42;5.10;99.90
24412;DHT22;12544;46.760;15.942;2023-02-28T13:18:27;5.10;99.90
24412;DHT22;12544;46.760;15.942;2023-02-28T13:20:53;5.00;99.90
24412;DHT22;12544;46.760;15.942;2023-02-28T13:34:19;5.20;99.90
24412;DHT22;12544;46.760;15.942;2023-02-28T13:36:46;5.30;99.90
24412;DHT22;12544;46.760;15.942;2023-02-28T13:47:39;5.30;99.90
24412;DHT22;12544;46.760;15.942;2023-02-28T13:50:21;5.20;99.90
24412;DHT22;12544;46.760;15.942;2023-02-28T14:00:57;5.00;99.90
24412;DHT22;12544;46.760;15.942;2023-02-28T14:08:35;4.80;99.90
24412;DHT22;12544;46.760;15.942;2023-02-28T14:11:05;4.70;99.90
24412;DHT22;12544;46.760;15.942;2023-02-28T14:13:41;4.70;99.90
24412;DHT22;12544;46.760;15.942;2023-02-28T14:16:13;4.60;99.90
24412;DHT22;12544;46.760;15.942;2023-02-28T14:18:49;4.70;99.90
24412;DHT22;12544;46.760;15.942;2023-02-28T14:21:20;4.80;99.90
24412;DHT22;12544;46.760;15.942;2023-02-28T14:29:08;5.00;99.90
24412;DHT22;12544;46.760;15.942;2023-02-28T14:31:37;5.10;99.90
24412;DHT22;12544;46.760;15.942;2023-02-28T14:34:10;5.00;99.90
24412;DHT22;12544;46.760;15.942;2023-02-28T14:36:39;4.90;99.90
24412;DHT22;12544;46.760;15.942;2023-02-28T14:39:07;5.00;99.90
24412;DHT22;12544;46.760;15.942;2023-02-28T14:41:37;4.90;99.90
24412;DHT22;12544;46.760;15.942;2023-02-28T14:47:04;4.90;99.90
24412;DHT22;12544;46.760;15.942;2023-02-28T14:49:42;4.90;99.90
24412;DHT22;12544;46.760;15.942;2023-02-28T14:52:20;5.00;99.90
24412;DHT22;12544;46.760;15.942;2023-02-28T14:54:57;5.00;99.90
24412;DHT22;12544;46.760;15.942;2023-02-28T14:57:28;5.10;99.90
24412;DHT22;12544;46.760;15.942;2023-02-28T15:02:26;5.30;99.90
24412;DHT22;12544;46.760;15.942;2023-02-28T15:04:52;5.40;99.90
24412;DHT22;12544;46.760;15.942;2023-02-28T15:07:17;5.40;99.90
24412;DHT22;12544;46.760;15.942;2023-02-28T15:09:43;5.50;99.90
24412;DHT22;12544;46.760;15.942;2023-02-28T15:12:11;5.60;99.90
24412;DHT22;12544;46.760;15.942;2023-02-28T15:14:38;5.50;99.90
24412;DHT22;12544;46.760;15.942;2023-02-28T15:17:08;5.50;99.90
24412;DHT22;12544;46.760;15.942;2023-02-28T15:19:37;5.50;99.90
24412;DHT22;12544;46.760;15.942;2023-02-28T15:22:12;5.60;99.90
24412;DHT22;12544;46.760;15.942;2023-02-28T15:24:50;5.60;99.90
24412;DHT22;12544;46.760;15.942;2023-02-28T15:27:24;5.60;99.90
24412;DHT22;12544;46.760;15.942;2023-02-28T15:29:53;5.60;99.90
24412;DHT22;12544;46.760;15.942;2023-02-28T15:32:30;5.60;99.90
24412;DHT22;12544;46.760;15.942;2023-02-28T15:34:57;5.60;99.90
24412;DHT22;12544;46.760;15.942;2023-02-28T15:39:57;5.60;99.90
24412;DHT22;12544;46.760;15.942;2023-02-28T15:42:27;5.60;99.90
24412;DHT22;12544;46.760;15.942;2023-02-28T15:44:53;5.60;99.90
24412;DHT22;12544;46.760;15.942;2023-02-28T15:47:19;5.60;99.90
24412;DHT22;12544;46.760;15.942;2023-02-28T15:52:15;5.60;99.90
24412;DHT22;12544;46.760;15.942;2023-02-28T15:54:42;5.50;99.90
24412;DHT22;12544;46.760;15.942;2023-02-28T15:57:13;5.60;99.90
24412;DHT22;12544;46.760;15.942;2023-02-28T15:59:38;5.50;99.90
24412;DHT22;12544;46.760;15.942;2023-02-28T16:04:32;5.50;99.90
24412;DHT22;12544;46.760;15.942;2023-02-28T16:09:23;5.40;99.90
24412;DHT22;12544;46.760;15.942;2023-02-28T16:11:50;5.40;99.90
24412;DHT22;12544;46.760;15.942;2023-02-28T16:14:21;5.40;99.90
24412;DHT22;12544;46.760;15.942;2023-02-28T16:16:49;5.30;99.90
24412;DHT22;12544;46.760;15.942;2023-02-28T16:19:15;5.30;99.90
24412;DHT22;12544;46.760;15.942;2023-02-28T16:21:40;5.20;99.90
24412;DHT22;12544;46.760;15.942;2023-02-28T16:24:06;5.20;99.90
24412;DHT22;12544;46.760;15.942;2023-02-28T16:26:32;5.10;99.90
24412;DHT22;12544;46.760;15.942;2023-02-28T16:28:59;5.00;99.90
24412;DHT22;12544;46.760;15.942;2023-02-28T16:31:25;5.00;99.90
24412;DHT22;12544;46.760;15.942;2023-02-28T16:33:51;4.90;99.90
24412;DHT22;12544;46.760;15.942;2023-02-28T16:36:18;4.90;99.90
24412;DHT22;12544;46.760;15.942;2023-02-28T16:38:43;4.80;99.90
24412;DHT22;12544;46.760;15.942;2023-02-28T16:41:11;4.70;99.90
24412;DHT22;12544;46.760;15.942;2023-02-28T16:43:41;4.70;99.90
24412;DHT22;12544;46.760;15.942;2023-02-28T16:46:08;4.70;99.90
24412;DHT22;12544;46.760;15.942;2023-02-28T16:48:35;4.70;99.90
24412;DHT22;12544;46.760;15.942;2023-02-28T16:51:00;4.50;99.90
24412;DHT22;12544;46.760;15.942;2023-02-28T16:53:26;4.50;99.90
24412;DHT22;12544;46.760;15.942;2023-02-28T16:55:51;4.50;99.90
24412;DHT22;12544;46.760;15.942;2023-02-28T16:58:17;4.50;99.90
24412;DHT22;12544;46.760;15.942;2023-02-28T17:00:44;4.40;99.90
24412;DHT22;12544;46.760;15.942;2023-02-28T17:03:19;4.40;99.90
24412;DHT22;12544;46.760;15.942;2023-02-28T17:05:46;4.30;99.90
24412;DHT22;12544;46.760;15.942;2023-02-28T17:08:12;4.20;99.90
24412;DHT22;12544;46.760;15.942;2023-02-28T17:10:38;4.20;99.90
24412;DHT22;12544;46.760;15.942;2023-02-28T17:13:03;4.20;99.90
24412;DHT22;12544;46.760;15.942;2023-02-28T17:15:29;4.10;99.90
24412;DHT22;12544;46.760;15.942;2023-02-28T17:17:56;4.10;99.90
24412;DHT22;12544;46.760;15.942;2023-02-28T17:20:22;4.20;99.90
24412;DHT22;12544;46.760;15.942;2023-02-28T17:22:48;4.20;99.90
24412;DHT22;12544;46.760;15.942;2023-02-28T17:25:14;4.10;99.90
24412;DHT22;12544;46.760;15.942;2023-02-28T17:27:39;4.10;99.90
24412;DHT22;12544;46.760;15.942;2023-02-28T17:30:24;4.10;99.90
24412;DHT22;12544;46.760;15.942;2023-02-28T17:32:50;4.10;99.90
24412;DHT22;12544;46.760;15.942;2023-02-28T17:35:15;4.10;99.90
24412;DHT22;12544;46.760;15.942;2023-02-28T17:37:41;4.10;99.90
24412;DHT22;12544;46.760;15.942;2023-02-28T17:40:17;4.10;99.90
24412;DHT22;12544;46.760;15.942;2023-02-28T17:48:49;4.10;99.90
24412;DHT22;12544;46.760;15.942;2023-02-28T17:51:15;4.10;99.90
24412;DHT22;12544;46.760;15.942;2023-02-28T17:53:41;4.00;99.90
24412;DHT22;12544;46.760;15.942;2023-02-28T17:56:13;3.90;99.90
24412;DHT22;12544;46.760;15.942;2023-02-28T17:58:39;3.90;99.90
24412;DHT22;12544;46.760;15.942;2023-02-28T18:01:05;4.00;99.90
24412;DHT22;12544;46.760;15.942;2023-02-28T18:06:35;3.90;99.90
24412;DHT22;12544;46.760;15.942;2023-02-28T18:09:01;3.90;99.90
24412;DHT22;12544;46.760;15.942;2023-02-28T18:11:27;3.90;99.90
24412;DHT22;12544;46.760;15.942;2023-02-28T18:14:07;4.00;99.90
24412;DHT22;12544;46.760;15.942;2023-02-28T18:16:33;3.80;99.90
24412;DHT22;12544;46.760;15.942;2023-02-28T18:18:59;3.90;99.90
24412;DHT22;12544;46.760;15.942;2023-02-28T18:21:24;3.90;99.90
24412;DHT22;12544;46.760;15.942;2023-02-28T18:23:50;3.90;99.90
24412;DHT22;12544;46.760;15.942;2023-02-28T18:26:17;3.90;99.90
24412;DHT22;12544;46.760;15.942;2023-02-28T18:28:43;3.90;99.90
24412;DHT22;12544;46.760;15.942;2023-02-28T18:31:10;3.90;99.90
24412;DHT22;12544;46.760;15.942;2023-02-28T18:33:36;3.90;99.90
24412;DHT22;12544;46.760;15.942;2023-02-28T18:36:02;3.90;99.90
24412;DHT22;12544;46.760;15.942;2023-02-28T18:38:27;3.90;99.90
24412;DHT22;12544;46.760;15.942;2023-02-28T18:40:57;3.80;99.90
24412;DHT22;12544;46.760;15.942;2023-02-28T18:43:24;3.90;99.90
24412;DHT22;12544;46.760;15.942;2023-02-28T18:45:49;3.90;99.90
24412;DHT22;12544;46.760;15.942;2023-02-28T18:48:15;3.80;99.90
24412;DHT22;12544;46.760;15.942;2023-02-28T18:50:40;3.90;99.90
24412;DHT22;12544;46.760;15.942;2023-02-28T18:53:06;3.80;99.90
24412;DHT22;12544;46.760;15.942;2023-02-28T18:55:32;3.80;99.90
24412;DHT22;12544;46.760;15.942;2023-02-28T19:00:47;3.90;99.90
24412;DHT22;12544;46.760;15.942;2023-02-28T19:03:13;3.90;99.90
24412;DHT22;12544;46.760;15.942;2023-02-28T19:05:38;3.90;99.90
24412;DHT22;12544;46.760;15.942;2023-02-28T19:08:04;3.90;99.90